Calingasta, Argentina
Current Conditions -  °F | °C
As of 9:00 PM on Monday 24 Nov 2014 (Local Time) from SAME Reporting Station
Few Clouds Few Clouds  
Wind Chill: 70°   Ceiling: Unl
Heat Index: 70°   Visibility: 6mi
Dew Point: 41°   Wind: 0mph
Humidity: 35%   Direction: NA
Pressure: 29.91"   Gusts: NA
Location:  31.32°S, 69.42°W
Report Text: SAME 250000Z 00000KT 9999 FEW045 21/05 Q1013
Loading
Personal Weather Stations






























Interactive Weather Map New forecast layout! Learn more

10-Day Weather Forecast

Advertisements
Track Severe Weather on mobile